Time;durP1;ratioP1;P1;durP2;ratioP2;P2;SDS_P1;SDS_P2;PMS_P1;PMS_P2;Temp;Humidity;BMP_temperature;BMP_pressure;BME280_temperature;BME280_humidity;BME280_pressure;Samples;Min_cycle;Max_cycle;Signal;HPM_P1;HPM_P2
2023/08/05 00:01:40;;;;;;;0.30;0.30;;;12.70;99.90;;;;;;5078952;28;20576;-73
2023/08/05 00:04:06;;;;;;;0.40;0.40;;;12.60;99.90;;;;;;5052790;28;20204;-73
2023/08/05 00:06:32;;;;;;;0.30;0.30;;;12.60;99.90;;;;;;5067523;28;20237;-72
2023/08/05 00:08:58;;;;;;;0.40;0.40;;;12.60;99.90;;;;;;5051187;28;20200;-73
2023/08/05 00:11:23;;;;;;;0.50;0.50;;;12.60;99.90;;;;;;5052550;28;20205;-73
2023/08/05 00:13:49;;;;;;;0.50;0.50;;;12.50;99.90;;;;;;5050910;28;20202;-72
2023/08/05 00:16:18;;;;;;;0.73;0.73;;;12.50;99.90;;;;;;5055063;28;20204;-73
2023/08/05 00:18:44;;;;;;;0.40;0.40;;;12.40;99.90;;;;;;5054903;28;20327;-73
2023/08/05 00:21:10;;;;;;;0.40;0.40;;;12.30;99.90;;;;;;5065312;28;20690;-73
2023/08/05 00:23:36;;;;;;;0.50;0.50;;;12.30;99.90;;;;;;5058001;28;20595;-73
2023/08/05 00:26:02;;;;;;;0.60;0.60;;;12.30;99.90;;;;;;5075981;28;20197;-73
2023/08/05 00:28:27;;;;;;;0.40;0.40;;;12.30;99.90;;;;;;5057167;28;20203;-73
2023/08/05 00:30:53;;;;;;;0.47;0.47;;;12.20;99.90;;;;;;5057577;28;20197;-73
2023/08/05 00:33:19;;;;;;;0.50;0.50;;;12.20;99.90;;;;;;5075521;28;20269;-73
2023/08/05 00:35:45;;;;;;;0.55;0.55;;;12.20;99.90;;;;;;5075679;28;20207;-73
2023/08/05 00:38:11;;;;;;;0.55;0.55;;;12.20;99.90;;;;;;5056835;28;20298;-73
2023/08/05 00:40:37;;;;;;;0.50;0.50;;;12.10;99.90;;;;;;5073759;28;20710;-74
2023/08/05 00:43:03;;;;;;;0.50;0.50;;;12.10;99.90;;;;;;5057864;28;20197;-72
2023/08/05 00:45:30;;;;;;;0.50;0.50;;;12.10;99.90;;;;;;5074284;28;20196;-72
2023/08/05 00:47:56;;;;;;;0.40;0.40;;;12.00;99.90;;;;;;5073654;28;20215;-73
2023/08/05 00:50:22;;;;;;;0.47;0.47;;;12.00;99.90;;;;;;5075193;28;20599;-74
2023/08/05 00:52:48;;;;;;;0.50;0.50;;;12.00;99.90;;;;;;5056928;28;21078;-72
2023/08/05 00:55:14;;;;;;;0.40;0.40;;;12.00;99.90;;;;;;5057447;28;20197;-73
2023/08/05 00:57:40;;;;;;;0.60;0.60;;;11.90;99.90;;;;;;5074816;28;20197;-73
2023/08/05 01:00:07;;;;;;;0.50;0.50;;;12.00;99.90;;;;;;5074812;28;20219;-73
2023/08/05 01:02:32;;;;;;;0.40;0.40;;;12.00;99.90;;;;;;5081815;28;20567;-72
2023/08/05 01:04:58;;;;;;;0.43;0.43;;;12.00;99.90;;;;;;5072631;28;20197;-69
2023/08/05 01:07:32;;;;;;;2.60;1.17;;;11.90;99.90;;;;;;5074727;28;20335;-71
2023/08/05 01:09:58;;;;;;;0.45;0.45;;;11.90;99.90;;;;;;5057405;28;20912;-68
2023/08/05 01:12:24;;;;;;;0.50;0.50;;;11.90;99.90;;;;;;5057086;28;20251;-70
2023/08/05 01:14:56;;;;;;;0.60;0.60;;;11.80;99.90;;;;;;5057141;28;20193;-69
2023/08/05 01:17:27;;;;;;;0.40;0.40;;;11.80;99.90;;;;;;5057039;28;20562;-69
2023/08/05 01:20:00;;;;;;;0.47;0.47;;;11.70;99.90;;;;;;5056494;28;20246;-68
2023/08/05 01:22:53;;;;;;;0.35;0.35;;;11.60;99.90;;;;;;5075409;28;20590;-70
2023/08/05 01:25:27;;;;;;;0.50;0.50;;;11.60;99.90;;;;;;5056374;28;20201;-69
2023/08/05 01:27:58;;;;;;;0.50;0.50;;;11.60;99.90;;;;;;5074644;28;20189;-68
2023/08/05 01:30:29;;;;;;;0.50;0.50;;;11.60;99.90;;;;;;5056656;28;20207;-68
2023/08/05 01:32:55;;;;;;;0.50;0.50;;;11.60;99.90;;;;;;5074783;28;20674;-68
2023/08/05 01:35:29;;;;;;;0.50;0.50;;;11.60;99.90;;;;;;5073194;28;20295;-68
2023/08/05 01:37:59;;;;;;;0.47;0.47;;;11.60;99.90;;;;;;5057137;28;20206;-69
2023/08/05 01:40:29;;;;;;;0.40;0.40;;;11.60;99.90;;;;;;5056707;28;20250;-70
2023/08/05 01:43:02;;;;;;;0.50;0.50;;;11.60;99.90;;;;;;5073139;28;20561;-69
2023/08/05 01:45:32;;;;;;;0.60;0.60;;;11.60;99.90;;;;;;5069509;28;20224;-69
2023/08/05 01:48:02;;;;;;;0.50;0.50;;;11.60;99.90;;;;;;5036926;28;20629;-69
2023/08/05 01:50:35;;;;;;;0.50;0.50;;;11.60;99.90;;;;;;5036495;28;20664;-70
2023/08/05 01:53:01;;;;;;;0.50;0.50;;;11.60;99.90;;;;;;5058134;28;20691;-68
2023/08/05 01:55:29;;;;;;;0.50;0.50;;;11.70;99.90;;;;;;5073426;28;20204;-68
2023/08/05 01:57:55;;;;;;;0.50;0.50;;;11.70;99.90;;;;;;5056223;28;20205;-69
2023/08/05 02:00:21;;;;;;;0.40;0.40;;;11.70;99.90;;;;;;5073923;28;20208;-68
2023/08/05 02:02:47;;;;;;;0.40;0.40;;;11.70;99.90;;;;;;5089703;28;20193;-69
2023/08/05 02:05:26;;;;;;;0.50;0.50;;;11.70;99.90;;;;;;5072621;28;20189;-69
2023/08/05 02:07:51;;;;;;;0.50;0.50;;;11.70;99.90;;;;;;5089674;28;20236;-69
2023/08/05 02:10:25;;;;;;;0.50;0.50;;;11.70;99.90;;;;;;5090339;28;20204;-69
2023/08/05 02:12:51;;;;;;;0.50;0.50;;;11.70;99.90;;;;;;5074681;28;20196;-74
2023/08/05 02:15:23;;;;;;;0.50;0.50;;;11.70;99.90;;;;;;5072358;28;20215;-75
2023/08/05 02:17:49;;;;;;;0.50;0.50;;;11.70;99.90;;;;;;5073769;28;20682;-74
2023/08/05 02:20:23;;;;;;;0.50;0.50;;;11.60;99.90;;;;;;5073067;28;20201;-74
2023/08/05 02:22:49;;;;;;;0.60;0.60;;;11.60;99.90;;;;;;5074171;28;20195;-69
2023/08/05 02:25:15;;;;;;;0.45;0.45;;;11.60;99.90;;;;;;5072563;28;20589;-68
2023/08/05 02:27:47;;;;;;;0.50;0.50;;;11.60;99.90;;;;;;5090920;28;20687;-70
2023/08/05 02:30:19;;;;;;;0.50;0.50;;;11.60;99.90;;;;;;5075773;28;20269;-68
2023/08/05 02:32:55;;;;;;;;;;;;;;;;;;;;;
2023/08/05 02:35:32;;;;;;;0.50;0.50;;;11.50;99.90;;;;;;5097159;28;20279;-70
2023/08/05 02:37:58;;;;;;;0.50;0.50;;;11.50;99.90;;;;;;5096212;28;20278;-72
2023/08/05 02:40:38;;;;;;;0.50;0.50;;;11.60;99.90;;;;;;5096185;28;20254;-72
2023/08/05 02:43:09;;;;;;;0.50;0.50;;;11.60;99.90;;;;;;5095467;28;20192;-72
2023/08/05 02:45:35;;;;;;;0.40;0.40;;;11.60;99.90;;;;;;5088088;28;20204;-72
2023/08/05 02:48:03;;;;;;;0.60;0.60;;;11.70;99.90;;;;;;5075718;28;20192;-73
2023/08/05 02:50:29;;;;;;;0.50;0.50;;;11.70;99.90;;;;;;5087352;28;20598;-72
2023/08/05 02:53:01;;;;;;;0.43;0.43;;;11.70;99.90;;;;;;5055351;28;20276;-72
2023/08/05 02:55:28;;;;;;;0.40;0.40;;;11.80;99.90;;;;;;5053634;28;20204;-71
2023/08/05 02:57:59;;;;;;;0.50;0.50;;;11.80;99.90;;;;;;5052287;28;20213;-73
2023/08/05 03:00:25;;;;;;;0.50;0.50;;;11.90;99.90;;;;;;5058899;28;20291;-73
2023/08/05 03:02:51;;;;;;;0.55;0.55;;;12.00;99.90;;;;;;5073579;28;20675;-72
2023/08/05 03:05:17;;;;;;;0.50;0.50;;;12.10;99.90;;;;;;5058496;28;20197;-73
2023/08/05 03:07:53;;;;;;;0.40;0.40;;;12.10;99.90;;;;;;5074054;28;20286;-72
2023/08/05 03:10:27;;;;;;;0.50;0.50;;;12.20;99.90;;;;;;5073725;28;20228;-72
2023/08/05 03:12:53;;;;;;;0.50;0.50;;;12.30;99.90;;;;;;5057421;28;20242;-72
2023/08/05 03:15:20;;;;;;;0.40;0.40;;;12.40;99.90;;;;;;5074006;28;20687;-73
2023/08/05 03:17:49;;;;;;;0.50;0.50;;;12.40;99.90;;;;;;5072390;28;20223;-72
2023/08/05 03:20:34;;;;;;;0.60;0.60;;;12.50;99.90;;;;;;5072899;28;20201;-74
2023/08/05 03:23:00;;;;;;;0.63;0.60;;;12.60;99.90;;;;;;5076769;28;20196;-73
2023/08/05 03:25:29;;;;;;;0.60;0.60;;;12.70;99.90;;;;;;5062672;28;20588;-73
2023/08/05 03:27:55;;;;;;;0.43;0.43;;;12.80;99.90;;;;;;5072912;28;20204;-72
2023/08/05 03:30:27;;;;;;;0.40;0.40;;;12.80;99.90;;;;;;5057356;28;20197;-73
2023/08/05 03:32:53;;;;;;;0.40;0.40;;;12.90;99.90;;;;;;5062288;28;20658;-73
2023/08/05 03:35:19;;;;;;;0.40;0.40;;;12.90;99.90;;;;;;5076901;28;20239;-73
2023/08/05 03:37:59;;;;;;;0.40;0.40;;;13.00;99.90;;;;;;5061694;28;20196;-73
2023/08/05 03:40:31;;;;;;;0.40;0.40;;;13.00;99.90;;;;;;5077046;28;20782;-74
2023/08/05 03:42:57;;;;;;;0.90;0.90;;;13.10;99.90;;;;;;5057997;28;20283;-71
2023/08/05 03:45:33;;;;;;;0.40;0.40;;;13.10;99.90;;;;;;5071452;28;20284;-71
2023/08/05 03:48:00;;;;;;;0.40;0.40;;;13.10;99.90;;;;;;5072989;28;20219;-71
2023/08/05 03:50:28;;;;;;;0.43;0.43;;;13.10;99.90;;;;;;5076622;28;20207;-72
2023/08/05 03:52:55;;;;;;;0.40;0.40;;;13.10;99.90;;;;;;5085129;28;20678;-73
2023/08/05 03:55:37;;;;;;;0.47;0.47;;;13.10;99.90;;;;;;5084232;28;20200;-73
2023/08/05 03:58:07;;;;;;;0.60;0.60;;;13.10;99.90;;;;;;5080049;28;20642;-72
2023/08/05 04:00:36;;;;;;;0.40;0.40;;;13.10;99.90;;;;;;5078182;28;20258;-71
2023/08/05 04:03:21;;;;;;;0.30;0.30;;;13.00;99.90;;;;;;5094588;28;20586;-73
2023/08/05 04:05:57;;;;;;;0.50;0.50;;;13.00;99.90;;;;;;5091942;28;20227;-73
2023/08/05 04:08:32;;;;;;;0.68;0.50;;;13.10;99.90;;;;;;5092087;28;20294;-73
2023/08/05 04:11:00;;;;;;;0.40;0.40;;;13.10;99.90;;;;;;5077373;28;20204;-71
2023/08/05 04:13:31;;;;;;;0.45;0.45;;;13.10;99.90;;;;;;5074655;28;20250;-71
2023/08/05 04:16:03;;;;;;;0.50;0.50;;;13.10;99.90;;;;;;5075447;28;20196;-72
2023/08/05 04:18:36;;;;;;;0.57;0.57;;;13.10;99.90;;;;;;5074420;28;20196;-71
2023/08/05 04:21:13;;;;;;;0.43;0.43;;;13.10;99.90;;;;;;5075348;28;20220;-72
2023/08/05 04:23:49;;;;;;;0.40;0.40;;;13.10;99.90;;;;;;5058350;28;20196;-72
2023/08/05 04:26:19;;;;;;;0.40;0.40;;;13.10;99.90;;;;;;5075629;28;20561;-73
2023/08/05 04:28:55;;;;;;;0.40;0.40;;;13.10;99.90;;;;;;5075912;28;20204;-73
2023/08/05 04:31:21;;;;;;;0.40;0.40;;;13.10;99.90;;;;;;5057660;28;20612;-71
2023/08/05 04:34:04;;;;;;;0.30;0.30;;;13.10;99.90;;;;;;5058100;28;20204;-73
2023/08/05 04:36:33;;;;;;;0.40;0.40;;;13.10;99.90;;;;;;5057904;28;20197;-73
2023/08/05 04:39:14;;;;;;;0.38;0.38;;;13.10;99.90;;;;;;5076086;28;20201;-72
2023/08/05 04:41:58;;;;;;;0.30;0.30;;;13.10;99.90;;;;;;5057546;28;20303;-72
2023/08/05 04:44:52;;;;;;;0.40;0.40;;;13.20;99.90;;;;;;5074344;28;20197;-72
2023/08/05 04:47:47;;;;;;;0.43;0.43;;;13.20;99.90;;;;;;5075843;28;20238;-72
2023/08/05 04:50:17;;;;;;;0.40;0.40;;;13.20;99.90;;;;;;5058101;28;20613;-71
2023/08/05 04:52:44;;;;;;;0.45;0.45;;;13.20;99.90;;;;;;5073826;28;20218;-73
2023/08/05 04:55:35;;;;;;;0.50;0.50;;;13.30;99.90;;;;;;5056887;28;20637;-73
2023/08/05 04:58:22;;;;;;;0.40;0.40;;;13.30;99.90;;;;;;5065324;28;20292;-74
2023/08/05 05:00:56;;;;;;;0.47;0.47;;;13.30;99.90;;;;;;5077169;28;20580;-73
2023/08/05 05:03:31;;;;;;;0.40;0.40;;;13.30;99.90;;;;;;5090116;28;20292;-74
2023/08/05 05:06:00;;;;;;;0.35;0.35;;;13.30;99.90;;;;;;5068504;28;20196;-73
2023/08/05 05:08:36;;;;;;;0.40;0.40;;;13.30;99.90;;;;;;5072651;28;20774;-73
2023/08/05 05:11:02;;;;;;;0.38;0.38;;;13.30;99.90;;;;;;5056837;28;20603;-73
2023/08/05 05:16:36;;;;;;;0.40;0.40;;;13.30;99.90;;;;;;5067441;28;20215;-74
2023/08/05 05:19:05;;;;;;;0.40;0.40;;;13.30;99.90;;;;;;5073699;28;20454;-74
2023/08/05 05:21:34;;;;;;;0.40;0.40;;;13.30;99.90;;;;;;5074979;28;20691;-73
2023/08/05 05:24:06;;;;;;;0.50;0.50;;;13.40;99.90;;;;;;5075314;28;20193;-74
2023/08/05 05:27:02;;;;;;;0.40;0.40;;;13.40;99.90;;;;;;5074904;28;20197;-74
2023/08/05 05:29:46;;;;;;;0.40;0.40;;;13.50;99.90;;;;;;5070802;28;20205;-74
2023/08/05 05:32:12;;;;;;;0.70;0.70;;;13.50;99.90;;;;;;5073679;28;20196;-74
2023/08/05 05:34:38;;;;;;;0.30;0.30;;;13.50;99.90;;;;;;5073274;28;20207;-73
2023/08/05 05:37:04;;;;;;;0.40;0.40;;;13.60;99.90;;;;;;5074806;28;20297;-74
2023/08/05 05:39:49;;;;;;;0.40;0.40;;;13.60;99.90;;;;;;5072663;28;20660;-73
2023/08/05 05:42:15;;;;;;;0.47;0.47;;;13.70;99.90;;;;;;5075025;28;20223;-73
2023/08/05 05:44:41;;;;;;;0.30;0.30;;;13.70;99.90;;;;;;5073268;28;20220;-73
2023/08/05 05:47:08;;;;;;;0.40;0.40;;;13.80;99.90;;;;;;5074288;28;20204;-73
2023/08/05 05:49:35;;;;;;;0.40;0.40;;;13.80;99.90;;;;;;5074558;28;20250;-73
2023/08/05 05:52:01;;;;;;;0.40;0.40;;;13.80;99.90;;;;;;5056612;28;20284;-73
2023/08/05 05:54:27;;;;;;;0.40;0.40;;;13.90;99.90;;;;;;5073998;28;20189;-73
2023/08/05 05:56:54;;;;;;;0.75;0.75;;;13.90;99.90;;;;;;5072649;28;20552;-72
2023/08/05 05:59:20;;;;;;;0.40;0.40;;;13.90;99.90;;;;;;5074035;28;20195;-72
2023/08/05 06:01:46;;;;;;;0.30;0.30;;;13.90;99.90;;;;;;5067106;28;20279;-72
2023/08/05 06:04:21;;;;;;;0.50;0.50;;;14.00;99.90;;;;;;5073958;28;20196;-73
2023/08/05 06:06:54;;;;;;;0.30;0.30;;;14.00;99.90;;;;;;5075392;28;20281;-73
2023/08/05 06:09:31;;;;;;;0.47;0.47;;;14.00;99.90;;;;;;5058601;28;20260;-72
2023/08/05 06:12:00;;;;;;;0.50;0.50;;;14.00;99.90;;;;;;5074894;28;20273;-73
2023/08/05 06:14:34;;;;;;;0.60;0.60;;;14.10;99.90;;;;;;5058470;28;20197;-72
2023/08/05 06:17:08;;;;;;;0.50;0.50;;;14.20;99.90;;;;;;5059674;28;20188;-74
2023/08/05 06:19:35;;;;;;;0.40;0.40;;;14.30;99.90;;;;;;5061986;28;20196;-74
2023/08/05 06:22:01;;;;;;;0.40;0.40;;;14.30;99.90;;;;;;5077352;28;20306;-68
2023/08/05 06:27:32;;;;;;;0.60;0.60;;;14.40;99.90;;;;;;5062217;28;20213;-71
2023/08/05 06:30:08;;;;;;;0.85;0.63;;;14.50;99.90;;;;;;5055664;28;20202;-73
2023/08/05 06:32:37;;;;;;;0.30;0.30;;;14.50;99.90;;;;;;5073484;28;20196;-75
2023/08/05 06:35:16;;;;;;;0.32;0.32;;;14.50;99.90;;;;;;5054968;28;20201;-73
2023/08/05 06:37:42;;;;;;;0.30;0.30;;;14.50;99.90;;;;;;5071599;28;20201;-71
2023/08/05 06:40:09;;;;;;;0.55;0.55;;;14.60;99.90;;;;;;5074176;28;20201;-73
2023/08/05 06:43:21;;;;;;;0.40;0.40;;;14.60;99.90;;;;;;5055296;28;20204;-72
2023/08/05 06:45:48;;;;;;;0.40;0.40;;;14.60;99.90;;;;;;5076046;28;20197;-73
2023/08/05 06:49:00;;;;;;;;;;;;;;;;;;;;;
2023/08/05 06:51:27;;;;;;;0.40;0.40;;;14.70;99.90;;;;;;5054650;28;20265;-74
2023/08/05 06:53:56;;;;;;;0.32;0.32;;;15.00;99.90;;;;;;5092129;28;20219;-74
2023/08/05 06:56:22;;;;;;;0.32;0.32;;;15.20;99.90;;;;;;5082422;28;20615;-74
2023/08/05 06:59:08;;;;;;;0.40;0.40;;;15.50;99.90;;;;;;5086952;28;20197;-73
2023/08/05 07:02:33;;;;;;;0.40;0.40;;;15.80;99.90;;;;;;5067256;28;20725;-74
2023/08/05 07:05:37;;;;;;;0.40;0.40;;;16.30;99.90;;;;;;5058942;28;20311;-74
2023/08/05 07:08:51;;;;;;;0.40;0.40;;;16.90;99.90;;;;;;5093996;28;20236;-74
2023/08/05 07:11:18;;;;;;;0.40;0.40;;;17.00;99.90;;;;;;5074807;28;20208;-69
2023/08/05 07:14:31;;;;;;;0.30;0.30;;;16.90;99.90;;;;;;5072367;28;20549;-69
2023/08/05 07:20:56;;;;;;;;;;;;;;;;;;;;;
2023/08/05 07:23:24;;;;;;;0.30;0.30;;;16.60;99.90;;;;;;4971808;28;20210;-73
2023/08/05 07:25:51;;;;;;;0.35;0.35;;;16.50;99.90;;;;;;4973134;28;20638;-74
2023/08/05 07:28:43;;;;;;;0.35;0.35;;;16.40;99.90;;;;;;4971503;28;20215;-73
2023/08/05 07:31:21;;;;;;;0.55;0.55;;;16.50;99.90;;;;;;4958049;28;20676;-73
2023/08/05 07:34:09;;;;;;;1.30;0.52;;;16.70;99.90;;;;;;4952986;28;20280;-73
2023/08/05 07:36:55;;;;;;;0.38;0.38;;;16.90;99.90;;;;;;4936608;28;20209;-73
2023/08/05 07:39:28;;;;;;;0.40;0.40;;;17.00;99.90;;;;;;4952327;28;20216;-74
2023/08/05 07:42:06;;;;;;;0.60;0.60;;;17.10;99.90;;;;;;4936612;29;20652;-72
2023/08/05 07:44:40;;;;;;;0.32;0.32;;;17.50;99.90;;;;;;4952438;28;20645;-73
2023/08/05 07:47:09;;;;;;;0.60;0.60;;;17.90;99.90;;;;;;4952313;28;20814;-75
2023/08/05 07:52:53;;;;;;;0.57;0.55;;;18.50;99.90;;;;;;4944150;28;20209;-73
2023/08/05 07:58:56;;;;;;;;;;;;;;;;;;;;;
2023/08/05 08:01:55;;;;;;;;;;;;;;;;;;;;;
2023/08/05 08:04:24;;;;;;;0.30;0.30;;;18.80;99.90;;;;;;5072620;28;20201;-73
2023/08/05 08:06:52;;;;;;;0.25;0.25;;;18.70;99.90;;;;;;5088306;28;20233;-73
2023/08/05 08:09:28;;;;;;;0.50;0.50;;;18.70;99.90;;;;;;5072128;28;20614;-73
2023/08/05 08:12:08;;;;;;;0.47;0.47;;;18.60;99.90;;;;;;5088162;28;20197;-74
2023/08/05 08:14:37;;;;;;;0.30;0.30;;;18.50;99.90;;;;;;5072078;28;20200;-73
2023/08/05 08:17:08;;;;;;;0.40;0.40;;;18.50;99.90;;;;;;5072200;28;20221;-73
2023/08/05 08:19:37;;;;;;;0.70;0.52;;;18.60;99.90;;;;;;5070768;28;20523;-74
2023/08/05 08:22:06;;;;;;;0.30;0.30;;;18.60;99.90;;;;;;5071449;28;20196;-73
2023/08/05 08:24:36;;;;;;;0.25;0.25;;;18.50;99.90;;;;;;5072185;28;20189;-73
2023/08/05 08:27:02;;;;;;;0.30;0.30;;;18.40;99.90;;;;;;5071576;28;20209;-73
2023/08/05 08:29:28;;;;;;;0.65;0.65;;;18.20;99.90;;;;;;5050944;28;20213;-74
2023/08/05 08:31:57;;;;;;;0.40;0.40;;;18.20;99.90;;;;;;5052213;28;20201;-74
2023/08/05 08:34:26;;;;;;;0.40;0.40;;;18.10;99.90;;;;;;5052279;28;20194;-73
2023/08/05 08:36:52;;;;;;;0.50;0.50;;;18.20;99.90;;;;;;5052645;28;20198;-74
2023/08/05 08:39:23;;;;;;;0.30;0.30;;;18.10;99.90;;;;;;5055514;28;20690;-73
2023/08/05 08:41:59;;;;;;;0.82;0.47;;;18.10;99.90;;;;;;5054590;28;20227;-70
2023/08/05 08:44:41;;;;;;;0.20;0.20;;;17.90;99.90;;;;;;5056336;28;20185;-71
2023/08/05 08:47:12;;;;;;;0.20;0.20;;;17.70;99.90;;;;;;5055477;28;20204;-69
2023/08/05 08:50:10;;;;;;;3.03;0.93;;;17.70;99.90;;;;;;5067906;28;20561;-69
2023/08/05 08:52:46;;;;;;;0.30;0.30;;;17.70;99.90;;;;;;5036666;28;20233;-69
2023/08/05 08:55:20;;;;;;;0.30;0.30;;;17.70;99.90;;;;;;5037446;28;20200;-70
2023/08/05 08:57:45;;;;;;;0.30;0.30;;;17.70;99.90;;;;;;5053510;28;20233;-68
2023/08/05 09:00:20;;;;;;;0.35;0.35;;;17.70;99.90;;;;;;5040108;28;20220;-69
2023/08/05 09:02:46;;;;;;;0.40;0.40;;;17.60;99.90;;;;;;5074827;28;20659;-69
2023/08/05 09:05:12;;;;;;;0.40;0.40;;;17.60;99.90;;;;;;5075568;28;20246;-69
2023/08/05 09:07:47;;;;;;;0.35;0.35;;;17.60;99.90;;;;;;5074548;28;20224;-68
2023/08/05 09:10:13;;;;;;;0.52;0.50;;;17.60;99.90;;;;;;5075198;28;20601;-69
2023/08/05 09:12:40;;;;;;;0.43;0.43;;;17.50;99.90;;;;;;5057026;28;20212;-69
2023/08/05 09:15:11;;;;;;;0.20;0.20;;;17.60;99.90;;;;;;5057198;28;20709;-68
2023/08/05 09:17:44;;;;;;;1.55;0.73;;;17.60;99.90;;;;;;5056893;28;20683;-70
2023/08/05 09:20:27;;;;;;;0.63;0.63;;;17.50;99.90;;;;;;5057370;28;20299;-70
2023/08/05 09:23:24;;;;;;;1.17;0.95;;;17.50;99.90;;;;;;5070890;28;20289;-69
2023/08/05 09:26:06;;;;;;;0.40;0.40;;;17.50;99.90;;;;;;5053058;28;20210;-69
2023/08/05 09:28:53;;;;;;;0.57;0.57;;;17.50;99.90;;;;;;5053052;28;20197;-70
2023/08/05 09:31:26;;;;;;;0.40;0.40;;;17.40;99.90;;;;;;5052722;28;20202;-71
2023/08/05 09:35:07;;;;;;;0.88;0.50;;;17.40;99.90;;;;;;5086558;28;20638;-70
2023/08/05 09:37:54;;;;;;;0.73;0.73;;;17.40;99.90;;;;;;5051264;28;20237;-70
2023/08/05 09:40:49;;;;;;;;;;;;;;;;;;;;;
2023/08/05 09:43:28;;;;;;;0.98;0.88;;;17.70;99.90;;;;;;5054240;28;20192;-68
2023/08/05 09:46:29;;;;;;;0.30;0.30;;;17.90;99.90;;;;;;5052340;28;20244;-68
2023/08/05 09:49:17;;;;;;;1.10;0.50;;;18.30;99.90;;;;;;5012082;28;20693;-68
2023/08/05 09:52:05;;;;;;;2.60;1.80;;;19.00;99.90;;;;;;5053745;28;20205;-75
2023/08/05 09:55:04;;;;;;;0.50;0.50;;;19.30;99.90;;;;;;5055647;28;20197;-76
2023/08/05 09:57:41;;;;;;;0.63;0.55;;;19.60;99.90;;;;;;5054273;28;20205;-74
2023/08/05 10:00:35;;;;;;;0.88;0.68;;;19.50;99.90;;;;;;5059301;28;20691;-73
2023/08/05 10:03:07;;;;;;;0.93;0.88;;;19.60;99.90;;;;;;5068138;28;20268;-75
2023/08/05 10:05:48;;;;;;;0.60;0.60;;;19.70;99.90;;;;;;5093424;28;20221;-74
2023/08/05 10:08:36;;;;;;;0.75;0.40;;;19.80;99.90;;;;;;5080489;28;20201;-75
2023/08/05 10:11:27;;;;;;;0.55;0.55;;;19.70;99.90;;;;;;5077467;28;20258;-74
2023/08/05 10:14:40;;;;;;;0.30;0.30;;;19.50;99.90;;;;;;5078462;28;20223;-74
2023/08/05 10:18:07;;;;;;;1.08;0.80;;;19.40;99.90;;;;;;5076709;28;20236;-75
2023/08/05 10:20:50;;;;;;;2.88;1.02;;;19.70;99.90;;;;;;5001436;28;20199;-73
2023/08/05 10:23:25;;;;;;;0.43;0.40;;;20.20;99.90;;;;;;5008062;28;20229;-75
2023/08/05 10:26:15;;;;;;;1.38;0.80;;;20.50;99.90;;;;;;5017975;28;20198;-73
2023/08/05 10:28:47;;;;;;;0.55;0.43;;;21.30;99.90;;;;;;5048995;28;20205;-74
2023/08/05 10:31:27;;;;;;;2.05;0.80;;;21.70;99.90;;;;;;5057381;28;20283;-75
2023/08/05 10:34:18;;;;;;;1.13;0.88;;;22.00;99.90;;;;;;5073331;28;20264;-74
2023/08/05 10:36:57;;;;;;;0.65;0.65;;;22.00;99.90;;;;;;5071542;28;20194;-74
2023/08/05 10:40:00;;;;;;;0.60;0.60;;;21.50;99.90;;;;;;5071558;28;20193;-74
2023/08/05 10:42:29;;;;;;;0.55;0.55;;;21.10;99.90;;;;;;5070099;28;20217;-74
2023/08/05 10:45:08;;;;;;;0.98;0.82;;;21.50;99.90;;;;;;5074144;28;20220;-74
2023/08/05 10:47:58;;;;;;;0.65;0.60;;;22.20;99.90;;;;;;5073838;28;20196;-74
2023/08/05 10:50:26;;;;;;;0.73;0.73;;;22.60;99.90;;;;;;5056745;28;20663;-74
2023/08/05 10:52:53;;;;;;;1.02;0.93;;;23.00;99.90;;;;;;5072142;28;20287;-74
2023/08/05 10:55:47;;;;;;;0.82;0.82;;;23.50;99.90;;;;;;5072546;28;20247;-73
2023/08/05 10:58:52;;;;;;;0.52;0.52;;;22.90;99.90;;;;;;5071505;28;20205;-76
2023/08/05 11:01:55;;;;;;;0.73;0.73;;;22.40;99.90;;;;;;5075071;28;20201;-73
2023/08/05 11:07:19;;;;;;;2.47;0.98;;;22.30;99.90;;;;;;5033241;28;20319;-74
2023/08/05 11:09:48;;;;;;;0.85;0.85;;;22.90;99.90;;;;;;5054884;28;20668;-75
2023/08/05 11:12:19;;;;;;;0.38;0.35;;;23.20;99.90;;;;;;5054137;28;20190;-75
2023/08/05 11:14:47;;;;;;;0.57;0.57;;;23.90;99.90;;;;;;5053766;28;20194;-75
2023/08/05 11:17:15;;;;;;;0.47;0.47;;;23.80;99.90;;;;;;5053079;28;20227;-75
2023/08/05 11:19:55;;;;;;;0.40;0.40;;;23.50;99.90;;;;;;5052323;28;20204;-76
2023/08/05 11:22:39;;;;;;;1.75;0.75;;;24.00;99.90;;;;;;5052679;28;20205;-75
2023/08/05 11:25:18;;;;;;;0.63;0.60;;;24.30;99.90;;;;;;5053440;28;20213;-75
2023/08/05 11:28:06;;;;;;;0.20;0.20;;;24.40;99.90;;;;;;5052085;28;20283;-76
2023/08/05 11:30:32;;;;;;;3.40;0.82;;;24.50;99.90;;;;;;5053433;28;20217;-76
2023/08/05 11:32:58;;;;;;;0.75;0.75;;;24.10;99.90;;;;;;5069549;28;20197;-75
2023/08/05 11:35:31;;;;;;;0.30;0.30;;;23.60;99.90;;;;;;5053027;28;20256;-75
2023/08/05 11:38:12;;;;;;;1.20;0.60;;;23.30;99.90;;;;;;5052827;28;20225;-76
2023/08/05 11:41:11;;;;;;;3.38;0.60;;;23.50;99.90;;;;;;5051408;28;20270;-75
2023/08/05 11:44:08;;;;;;;0.77;0.43;;;23.50;99.90;;;;;;5051666;28;20582;-75
2023/08/05 11:46:34;;;;;;;0.43;0.43;;;23.10;99.90;;;;;;5068169;28;20228;-75
2023/08/05 11:49:18;;;;;;;0.98;0.32;;;23.50;99.90;;;;;;5067697;28;20201;-74
2023/08/05 11:52:15;;;;;;;0.38;0.30;;;24.00;99.90;;;;;;5052538;28;20189;-76
2023/08/05 11:54:59;;;;;;;0.40;0.40;;;24.40;99.90;;;;;;5067992;28;20206;-76
2023/08/05 11:57:59;;;;;;;0.55;0.55;;;24.60;99.90;;;;;;5067800;28;20244;-75
2023/08/05 12:01:06;;;;;;;0.15;0.15;;;25.30;99.90;;;;;;5049094;28;20213;-75
2023/08/05 12:03:38;;;;;;;1.10;0.55;;;25.20;99.90;;;;;;5052584;28;20680;-76
2023/08/05 12:06:13;;;;;;;0.82;0.57;;;25.40;99.90;;;;;;5054152;28;20232;-76
2023/08/05 12:09:11;;;;;;;0.30;0.30;;;25.80;99.90;;;;;;5087332;28;20208;-75
2023/08/05 12:11:47;;;;;;;0.35;0.35;;;25.40;99.90;;;;;;5071623;28;20699;-75
2023/08/05 12:14:17;;;;;;;0.40;0.40;;;24.80;99.90;;;;;;5059343;28;20197;-74
2023/08/05 12:17:07;;;;;;;0.35;0.35;;;24.50;99.90;;;;;;5057109;28;20264;-76
2023/08/05 12:19:48;;;;;;;0.55;0.55;;;24.50;99.90;;;;;;5054272;28;20197;-75
2023/08/05 12:22:23;;;;;;;10.15;1.00;;;24.80;99.90;;;;;;5056020;28;20201;-76
2023/08/05 12:25:13;;;;;;;0.70;0.47;;;24.80;99.90;;;;;;5054783;28;20254;-76
2023/08/05 12:28:03;;;;;;;0.50;0.35;;;24.90;99.90;;;;;;5061545;28;20277;-77
2023/08/05 12:30:36;;;;;;;0.20;0.20;;;24.50;99.90;;;;;;5043888;28;20687;-75
2023/08/05 12:33:03;;;;;;;1.35;0.73;;;24.40;99.90;;;;;;5054610;28;20300;-76
2023/08/05 12:35:34;;;;;;;1.30;0.45;;;24.90;99.90;;;;;;5054573;28;20208;-77
2023/08/05 12:38:31;;;;;;;3.20;0.73;;;25.30;99.90;;;;;;5071131;28;20198;-77
2023/08/05 12:41:24;;;;;;;;;;;;;;;;;;;;;
2023/08/05 12:43:59;;;;;;;1.25;0.77;;;25.10;99.90;;;;;;5055325;28;20189;-76
2023/08/05 12:46:29;;;;;;;1.42;0.52;;;24.80;99.90;;;;;;5070893;28;20193;-77
2023/08/05 12:49:01;;;;;;;0.10;0.10;;;24.90;99.90;;;;;;5070756;28;20251;-75
2023/08/05 12:51:37;;;;;;;0.32;0.32;;;24.50;99.90;;;;;;5070608;28;20201;-76
2023/08/05 12:54:10;;;;;;;0.75;0.75;;;23.80;99.90;;;;;;5070644;28;20248;-76
2023/08/05 12:57:00;;;;;;;2.30;0.80;;;23.40;99.90;;;;;;5070718;28;20201;-79
2023/08/05 12:59:35;;;;;;;0.60;0.60;;;23.80;99.90;;;;;;4977474;28;20239;-75
2023/08/05 13:02:02;;;;;;;1.10;0.68;;;24.00;99.90;;;;;;5003242;28;20222;-77
2023/08/05 13:04:34;;;;;;;1.20;0.68;;;23.90;99.90;;;;;;4976888;28;20679;-77
2023/08/05 13:07:01;;;;;;;0.80;0.50;;;23.90;99.90;;;;;;4976741;28;20286;-76
2023/08/05 13:09:44;;;;;;;1.25;0.68;;;23.60;99.90;;;;;;4977405;28;20290;-77
2023/08/05 13:12:13;;;;;;;0.30;0.30;;;23.00;99.90;;;;;;4993528;28;20223;-77
2023/08/05 13:14:49;;;;;;;1.08;0.93;;;22.80;99.90;;;;;;4992839;28;20227;-76
2023/08/05 13:17:15;;;;;;;2.28;0.88;;;23.10;99.90;;;;;;4976715;28;20625;-75
2023/08/05 13:19:44;;;;;;;0.47;0.40;;;23.00;99.90;;;;;;4993449;28;20297;-76
2023/08/05 13:22:13;;;;;;;0.30;0.30;;;23.10;99.90;;;;;;4993556;28;20215;-77
2023/08/05 13:24:46;;;;;;;0.75;0.75;;;23.20;99.90;;;;;;4994893;28;20721;-75
2023/08/05 13:27:15;;;;;;;10.13;0.80;;;23.50;99.90;;;;;;5012203;28;20666;-77
2023/08/05 13:29:55;;;;;;;0.90;0.60;;;23.80;99.90;;;;;;4995677;28;20754;-76
2023/08/05 13:32:40;;;;;;;0.22;0.22;;;23.80;99.90;;;;;;4987103;28;20617;-75
2023/08/05 13:35:19;;;;;;;0.20;0.20;;;24.10;99.90;;;;;;4976763;28;20198;-75
2023/08/05 13:37:45;;;;;;;7.30;0.40;;;23.80;99.90;;;;;;5052533;28;20213;-77
2023/08/05 13:40:11;;;;;;;0.20;0.20;;;23.70;99.90;;;;;;5053232;28;20210;-76
2023/08/05 13:42:42;;;;;;;0.57;0.57;;;23.30;99.90;;;;;;5054270;28;20194;-76
2023/08/05 13:48:07;;;;;;;0.45;0.45;;;23.50;99.90;;;;;;5046622;28;20242;-75
2023/08/05 13:50:32;;;;;;;0.30;0.30;;;23.80;99.90;;;;;;5054181;28;20194;-73
2023/08/05 13:53:04;;;;;;;0.25;0.25;;;24.00;99.90;;;;;;5070361;28;20205;-75
2023/08/05 13:55:30;;;;;;;0.30;0.30;;;23.40;99.90;;;;;;5053384;28;20256;-75
2023/08/05 13:58:04;;;;;;;0.25;0.25;;;23.30;99.90;;;;;;5053670;28;20555;-74
2023/08/05 14:00:36;;;;;;;0.73;0.60;;;23.40;99.90;;;;;;5059236;28;20203;-75